Time;durP1;ratioP1;P1;durP2;ratioP2;P2;SDS_P1;SDS_P2;PMS_P1;PMS_P2;Temp;Humidity;BMP_temperature;BMP_pressure;BME280_temperature;BME280_humidity;BME280_pressure;Samples;Min_cycle;Max_cycle;Signal;HPM_P1;HPM_P2
2023/12/01 00:01:02;;;;;;;1.48;0.38;;;;;;;;;;5057775;28;20067;-91
2023/12/01 00:03:28;;;;;;;0.10;0.10;;;;;;;;;;5074793;28;20040;-92
2023/12/01 00:05:54;;;;;;;0.10;0.10;;;;;;;;;;5057986;28;20476;-91
2023/12/01 00:08:20;;;;;;;0.68;0.68;;;;;;;;;;5058597;28;20094;-92
2023/12/01 00:10:46;;;;;;;0.20;0.20;;;;;;;;;;5057797;28;20040;-92
2023/12/01 00:13:12;;;;;;;0.15;0.15;;;;;;;;;;5057986;28;20060;-92
2023/12/01 00:15:38;;;;;;;0.20;0.20;;;;;;;;;;5057991;28;20051;-91
2023/12/01 00:18:04;;;;;;;0.10;0.10;;;;;;;;;;5074727;28;20075;-91
2023/12/01 00:20:31;;;;;;;0.17;0.17;;;;;;;;;;5057993;28;20036;-92
2023/12/01 00:22:58;;;;;;;0.80;0.80;;;;;;;;;;5058290;28;20470;-92
2023/12/01 00:25:25;;;;;;;0.25;0.25;;;;;;;;;;5058377;28;20053;-91
2023/12/01 00:27:51;;;;;;;0.25;0.25;;;;;;;;;;5058115;28;20138;-91
2023/12/01 00:30:17;;;;;;;0.20;0.20;;;;;;;;;;5057767;28;20086;-92
2023/12/01 00:32:43;;;;;;;0.10;0.10;;;;;;;;;;5058201;28;20051;-91
2023/12/01 00:35:09;;;;;;;0.40;0.40;;;;;;;;;;5076036;28;20036;-90
2023/12/01 00:37:35;;;;;;;0.10;0.10;;;;;;;;;;5067831;28;20047;-90
2023/12/01 00:40:01;;;;;;;0.10;0.10;;;;;;;;;;5071951;28;20040;-91
2023/12/01 00:42:27;;;;;;;0.20;0.20;;;;;;;;;;5061847;28;20071;-92
2023/12/01 00:44:53;;;;;;;0.30;0.30;;;;;;;;;;5061912;28;20099;-93
2023/12/01 00:47:19;;;;;;;0.38;0.38;;;;;;;;;;5061718;28;20036;-92
2023/12/01 00:49:45;;;;;;;0.52;0.38;;;;;;;;;;5061886;28;20040;-91
2023/12/01 00:52:11;;;;;;;0.20;0.20;;;;;;;;;;5061451;28;20044;-92
2023/12/01 00:54:37;;;;;;;0.20;0.20;;;;;;;;;;5061553;28;20127;-93
2023/12/01 00:57:03;;;;;;;0.17;0.17;;;;;;;;;;5061741;28;20483;-93
2023/12/01 00:59:29;;;;;;;1.67;0.77;;;;;;;;;;5061079;28;20044;-93
2023/12/01 01:01:55;;;;;;;0.55;0.55;;;;;;;;;;5078416;28;20044;-93
2023/12/01 01:04:21;;;;;;;0.10;0.10;;;;;;;;;;5061501;28;20051;-94
2023/12/01 01:06:48;;;;;;;0.10;0.10;;;;;;;;;;5078104;28;20103;-92
2023/12/01 01:09:14;;;;;;;0.10;0.10;;;;;;;;;;5077805;28;20047;-93
2023/12/01 01:11:40;;;;;;;0.73;0.47;;;;;;;;;;5060681;28;20036;-92
2023/12/01 01:14:06;;;;;;;0.20;0.20;;;;;;;;;;5060487;28;20060;-91
2023/12/01 01:16:32;;;;;;;0.25;0.25;;;;;;;;;;5077422;28;20059;-91
2023/12/01 01:18:58;;;;;;;0.10;0.10;;;;;;;;;;5061111;28;20436;-92
2023/12/01 01:21:24;;;;;;;0.20;0.20;;;;;;;;;;5060759;28;20040;-92
2023/12/01 01:23:50;;;;;;;0.10;0.10;;;;;;;;;;5060756;28;20054;-91
2023/12/01 01:26:16;;;;;;;0.10;0.10;;;;;;;;;;5077451;28;20172;-91
2023/12/01 01:28:42;;;;;;;0.10;0.10;;;;;;;;;;5077370;28;20100;-91
2023/12/01 01:31:08;;;;;;;0.20;0.20;;;;;;;;;;5077100;28;20040;-91
2023/12/01 01:33:36;;;;;;;0.25;0.25;;;;;;;;;;5060485;28;20036;-91
2023/12/01 01:36:02;;;;;;;0.13;0.13;;;;;;;;;;5060510;28;20040;-91
2023/12/01 01:38:28;;;;;;;0.10;0.10;;;;;;;;;;5077593;28;20031;-92
2023/12/01 01:40:55;;;;;;;0.77;0.77;;;;;;;;;;5060603;28;20036;-91
2023/12/01 01:43:24;;;;;;;0.40;0.40;;;;;;;;;;5060441;28;20405;-90
2023/12/01 01:46:09;;;;;;;0.20;0.20;;;;;;;;;;5060326;28;20040;-91
2023/12/01 01:48:35;;;;;;;0.10;0.10;;;;;;;;;;5059817;28;20102;-91
2023/12/01 01:51:02;;;;;;;0.10;0.10;;;;;;;;;;5076990;28;20040;-91
2023/12/01 01:53:28;;;;;;;0.63;0.63;;;;;;;;;;5060116;28;20039;-91
2023/12/01 01:55:57;;;;;;;0.28;0.28;;;;;;;;;;5076949;28;20040;-91
2023/12/01 01:58:24;;;;;;;0.10;0.10;;;;;;;;;;5060409;28;20044;-91
2023/12/01 02:00:50;;;;;;;0.20;0.20;;;;;;;;;;5076528;28;20036;-92
2023/12/01 02:03:21;;;;;;;0.10;0.10;;;;;;;;;;5060014;28;20136;-92
2023/12/01 02:05:47;;;;;;;0.80;0.35;;;;;;;;;;5077110;28;20329;-92
2023/12/01 02:08:19;;;;;;;0.10;0.10;;;;;;;;;;5076274;28;20083;-91
2023/12/01 02:10:46;;;;;;;0.10;0.10;;;;;;;;;;5092789;28;20215;-90
2023/12/01 02:13:14;;;;;;;0.10;0.10;;;;;;;;;;5059222;28;20538;-91
2023/12/01 02:15:41;;;;;;;0.10;0.10;;;;;;;;;;5059764;28;20048;-90
2023/12/01 02:18:27;;;;;;;0.10;0.10;;;;;;;;;;5076461;28;20041;-91
2023/12/01 02:20:56;;;;;;;0.10;0.10;;;;;;;;;;5075791;28;20047;-91
2023/12/01 02:23:22;;;;;;;0.10;0.10;;;;;;;;;;5076252;28;20051;-90
2023/12/01 02:25:48;;;;;;;0.28;0.25;;;;;;;;;;5076074;28;20048;-91
2023/12/01 02:28:14;;;;;;;1.02;1.00;;;;;;;;;;5076113;28;20043;-91
2023/12/01 02:30:41;;;;;;;0.32;0.32;;;;;;;;;;5059102;28;20040;-90
2023/12/01 02:33:07;;;;;;;0.32;0.32;;;;;;;;;;5058913;28;20111;-91
2023/12/01 02:35:55;;;;;;;0.15;0.15;;;;;;;;;;5071828;28;20036;-96
2023/12/01 02:38:21;;;;;;;0.10;0.10;;;;;;;;;;5078775;28;20052;-90
2023/12/01 02:40:50;;;;;;;0.73;0.73;;;;;;;;;;5058704;28;20044;-91
2023/12/01 02:43:19;;;;;;;0.10;0.10;;;;;;;;;;5075718;28;20115;-91
2023/12/01 02:45:45;;;;;;;0.10;0.10;;;;;;;;;;5075413;28;20075;-90
2023/12/01 02:48:11;;;;;;;0.20;0.20;;;;;;;;;;5058989;28;20048;-90
2023/12/01 02:50:38;;;;;;;0.10;0.10;;;;;;;;;;5058537;28;20617;-90
2023/12/01 02:53:04;;;;;;;0.15;0.15;;;;;;;;;;5058722;28;20040;-89
2023/12/01 02:55:30;;;;;;;0.40;0.40;;;;;;;;;;5058876;28;20043;-90
2023/12/01 02:57:56;;;;;;;0.10;0.10;;;;;;;;;;5074853;28;20032;-90
2023/12/01 03:00:24;;;;;;;0.10;0.10;;;;;;;;;;5057938;28;20040;-89
2023/12/01 03:02:50;;;;;;;0.10;0.10;;;;;;;;;;5075172;28;20036;-90
2023/12/01 03:05:16;;;;;;;0.20;0.20;;;;;;;;;;5058414;28;20080;-90
2023/12/01 03:07:42;;;;;;;0.28;0.28;;;;;;;;;;5058309;28;20032;-89
2023/12/01 03:10:09;;;;;;;0.10;0.10;;;;;;;;;;5058041;28;20126;-89
2023/12/01 03:12:35;;;;;;;0.10;0.10;;;;;;;;;;5058022;28;20046;-89
2023/12/01 03:15:01;;;;;;;0.10;0.10;;;;;;;;;;5058814;28;20508;-91
2023/12/01 03:17:27;;;;;;;0.10;0.10;;;;;;;;;;5058583;28;20096;-90
2023/12/01 03:19:53;;;;;;;0.57;0.57;;;;;;;;;;5058639;28;20040;-92
2023/12/01 03:22:19;;;;;;;0.30;0.30;;;;;;;;;;5075173;28;20047;-91
2023/12/01 03:24:47;;;;;;;0.10;0.10;;;;;;;;;;5058520;28;20039;-92
2023/12/01 03:27:16;;;;;;;0.10;0.10;;;;;;;;;;5058933;28;20064;-91
2023/12/01 03:29:42;;;;;;;0.10;0.10;;;;;;;;;;5075358;28;20040;-91
2023/12/01 03:32:08;;;;;;;0.10;0.10;;;;;;;;;;5058366;28;20036;-92
2023/12/01 03:34:34;;;;;;;0.10;0.10;;;;;;;;;;5058457;28;20390;-92
2023/12/01 03:37:01;;;;;;;0.10;0.10;;;;;;;;;;5058181;28;20554;-90
2023/12/01 03:39:27;;;;;;;0.40;0.40;;;;;;;;;;5057959;28;20231;-89
2023/12/01 03:41:54;;;;;;;0.10;0.10;;;;;;;;;;5057927;28;20217;-89
2023/12/01 03:44:20;;;;;;;0.10;0.10;;;;;;;;;;5074706;28;20483;-90
2023/12/01 03:46:46;;;;;;;0.90;0.63;;;;;;;;;;5057664;28;20053;-90
2023/12/01 03:49:12;;;;;;;0.20;0.20;;;;;;;;;;5057649;28;20554;-89
2023/12/01 03:51:39;;;;;;;0.10;0.10;;;;;;;;;;5074402;28;20054;-90
2023/12/01 03:54:05;;;;;;;0.10;0.10;;;;;;;;;;5057810;28;20480;-89
2023/12/01 03:56:36;;;;;;;0.52;0.52;;;;;;;;;;5074340;28;20095;-90
2023/12/01 03:59:02;;;;;;;0.10;0.10;;;;;;;;;;5058865;28;20047;-90
2023/12/01 04:01:29;;;;;;;0.55;0.55;;;;;;;;;;5074780;28;20157;-89
2023/12/01 04:03:55;;;;;;;0.10;0.10;;;;;;;;;;5060464;28;20081;-90
2023/12/01 04:06:21;;;;;;;0.20;0.20;;;;;;;;;;5060485;28;20084;-90
2023/12/01 04:08:47;;;;;;;0.10;0.10;;;;;;;;;;5092447;28;20051;-88
2023/12/01 04:11:13;;;;;;;0.10;0.10;;;;;;;;;;5074077;28;20137;-89
2023/12/01 04:13:40;;;;;;;0.30;0.30;;;;;;;;;;5077381;28;20048;-90
2023/12/01 04:16:08;;;;;;;0.10;0.10;;;;;;;;;;5078347;28;20047;-90
2023/12/01 04:18:35;;;;;;;0.10;0.10;;;;;;;;;;5062025;28;20093;-90
2023/12/01 04:21:08;;;;;;;1.25;0.80;;;;;;;;;;5061428;28;20128;-90
2023/12/01 04:23:34;;;;;;;0.10;0.10;;;;;;;;;;5079033;28;20052;-90
2023/12/01 04:26:01;;;;;;;0.38;0.38;;;;;;;;;;5061560;28;20044;-90
2023/12/01 04:28:27;;;;;;;0.10;0.10;;;;;;;;;;5078263;28;20044;-91
2023/12/01 04:30:53;;;;;;;0.10;0.10;;;;;;;;;;5061171;28;20067;-89
2023/12/01 04:33:19;;;;;;;0.10;0.10;;;;;;;;;;5078121;28;20035;-90
2023/12/01 04:35:45;;;;;;;0.10;0.10;;;;;;;;;;5061260;28;20040;-89
2023/12/01 04:38:11;;;;;;;1.27;0.20;;;;;;;;;;5078096;28;20130;-90
2023/12/01 04:40:37;;;;;;;0.15;0.15;;;;;;;;;;5077906;28;20502;-90
2023/12/01 04:43:03;;;;;;;0.20;0.20;;;;;;;;;;5094734;28;20075;-89
2023/12/01 04:45:35;;;;;;;0.20;0.20;;;;;;;;;;5061197;28;20047;-90
2023/12/01 04:48:01;;;;;;;0.10;0.10;;;;;;;;;;5061517;28;20048;-90
2023/12/01 04:50:28;;;;;;;0.65;0.65;;;;;;;;;;5061224;28;20046;-90
2023/12/01 04:52:54;;;;;;;0.70;0.45;;;;;;;;;;5061279;28;20090;-91
2023/12/01 04:55:20;;;;;;;0.10;0.10;;;;;;;;;;5077480;28;20032;-91
2023/12/01 04:57:47;;;;;;;0.17;0.17;;;;;;;;;;5077924;28;20098;-91
2023/12/01 05:00:20;;;;;;;0.10;0.10;;;;;;;;;;5077800;28;20105;-91
2023/12/01 05:02:56;;;;;;;0.10;0.10;;;;;;;;;;5078463;28;20043;-90
2023/12/01 05:05:25;;;;;;;0.10;0.10;;;;;;;;;;5077643;28;20159;-90
2023/12/01 05:07:52;;;;;;;0.10;0.10;;;;;;;;;;5077589;28;20040;-90
2023/12/01 05:10:19;;;;;;;0.10;0.10;;;;;;;;;;5060653;28;20510;-90
2023/12/01 05:12:49;;;;;;;0.10;0.10;;;;;;;;;;5077576;28;20035;-90
2023/12/01 05:15:18;;;;;;;0.20;0.20;;;;;;;;;;5077711;28;20389;-91
2023/12/01 05:17:58;;;;;;;0.10;0.10;;;;;;;;;;5061255;28;20044;-92
2023/12/01 05:20:25;;;;;;;0.10;0.10;;;;;;;;;;5060535;28;20108;-89
2023/12/01 05:22:54;;;;;;;0.10;0.10;;;;;;;;;;5060604;28;20479;-90
2023/12/01 05:25:21;;;;;;;0.10;0.10;;;;;;;;;;5076015;28;20040;-90
2023/12/01 05:27:51;;;;;;;0.10;0.10;;;;;;;;;;5076983;28;20135;-91
2023/12/01 05:30:21;;;;;;;0.45;0.40;;;;;;;;;;5076831;28;20093;-90
2023/12/01 05:32:48;;;;;;;0.15;0.15;;;;;;;;;;5060185;28;20040;-91
2023/12/01 05:35:15;;;;;;;0.10;0.10;;;;;;;;;;5060445;28;20032;-90
2023/12/01 05:37:41;;;;;;;0.25;0.25;;;;;;;;;;5061983;28;20105;-90
2023/12/01 05:40:08;;;;;;;0.10;0.10;;;;;;;;;;5061228;28;20046;-89
2023/12/01 05:42:35;;;;;;;0.10;0.10;;;;;;;;;;5062304;28;20040;-91
2023/12/01 05:45:00;;;;;;;0.10;0.10;;;;;;;;;;5062224;28;20040;-89
2023/12/01 05:47:26;;;;;;;0.10;0.10;;;;;;;;;;5078963;28;20475;-90
2023/12/01 05:49:53;;;;;;;0.40;0.40;;;;;;;;;;5077759;28;20044;-89
2023/12/01 05:52:19;;;;;;;0.20;0.20;;;;;;;;;;5094715;28;20040;-90
2023/12/01 05:54:45;;;;;;;0.10;0.10;;;;;;;;;;5060885;28;20457;-90
2023/12/01 05:57:11;;;;;;;0.10;0.10;;;;;;;;;;5077625;28;20093;-90
2023/12/01 05:59:38;;;;;;;0.10;0.10;;;;;;;;;;5076772;28;20040;-90
2023/12/01 06:02:11;;;;;;;0.10;0.10;;;;;;;;;;5060489;28;20161;-90
2023/12/01 06:04:37;;;;;;;0.10;0.10;;;;;;;;;;5060941;28;20040;-90
2023/12/01 06:07:03;;;;;;;0.40;0.40;;;;;;;;;;5059856;28;20403;-90
2023/12/01 06:09:29;;;;;;;0.10;0.10;;;;;;;;;;5076408;28;20506;-90
2023/12/01 06:11:55;;;;;;;0.10;0.10;;;;;;;;;;5059598;28;20044;-90
2023/12/01 06:14:22;;;;;;;0.10;0.10;;;;;;;;;;5093045;28;20062;-91
2023/12/01 06:16:48;;;;;;;0.10;0.10;;;;;;;;;;5059657;28;20040;-91
2023/12/01 06:19:14;;;;;;;0.10;0.10;;;;;;;;;;5059833;28;20429;-91
2023/12/01 06:21:40;;;;;;;0.10;0.10;;;;;;;;;;5059525;28;20039;-90
2023/12/01 06:24:06;;;;;;;0.10;0.10;;;;;;;;;;5059668;28;20043;-89
2023/12/01 06:26:32;;;;;;;0.10;0.10;;;;;;;;;;5075929;28;20046;-91
2023/12/01 06:28:58;;;;;;;0.10;0.10;;;;;;;;;;5059682;28;20128;-91
2023/12/01 06:31:24;;;;;;;0.10;0.10;;;;;;;;;;5076250;28;20151;-91
2023/12/01 06:33:50;;;;;;;0.10;0.10;;;;;;;;;;5059367;28;20040;-92
2023/12/01 06:36:16;;;;;;;0.10;0.10;;;;;;;;;;5076143;28;20116;-90
2023/12/01 06:38:42;;;;;;;0.10;0.10;;;;;;;;;;5076060;28;20502;-89
2023/12/01 06:41:09;;;;;;;0.10;0.10;;;;;;;;;;5059092;28;20036;-91
2023/12/01 06:43:35;;;;;;;0.10;0.10;;;;;;;;;;5058880;28;20040;-89
2023/12/01 06:46:02;;;;;;;0.10;0.10;;;;;;;;;;5059124;28;20106;-91
2023/12/01 06:48:28;;;;;;;0.10;0.10;;;;;;;;;;5075767;28;20040;-91
2023/12/01 06:50:54;;;;;;;0.10;0.10;;;;;;;;;;5058781;28;20340;-91
2023/12/01 06:53:20;;;;;;;0.10;0.10;;;;;;;;;;5075707;28;20112;-91
2023/12/01 06:55:46;;;;;;;0.10;0.10;;;;;;;;;;5075631;28;20055;-91
2023/12/01 06:58:12;;;;;;;0.10;0.10;;;;;;;;;;5058968;28;20196;-90
2023/12/01 07:00:39;;;;;;;0.10;0.10;;;;;;;;;;5075375;28;20044;-92
2023/12/01 07:03:08;;;;;;;0.10;0.10;;;;;;;;;;5059759;28;20104;-91
2023/12/01 07:05:35;;;;;;;0.10;0.10;;;;;;;;;;5058760;28;20040;-91
2023/12/01 07:08:01;;;;;;;0.10;0.10;;;;;;;;;;5075066;28;20509;-91
2023/12/01 07:10:27;;;;;;;0.10;0.10;;;;;;;;;;5058456;28;20040;-91
2023/12/01 07:12:53;;;;;;;0.10;0.10;;;;;;;;;;5075379;28;20036;-92
2023/12/01 07:15:20;;;;;;;0.10;0.10;;;;;;;;;;5075231;28;20055;-92
2023/12/01 07:17:48;;;;;;;0.10;0.10;;;;;;;;;;5059476;28;20093;-92
2023/12/01 07:20:14;;;;;;;0.10;0.10;;;;;;;;;;5075723;28;20048;-92
2023/12/01 07:22:42;;;;;;;0.10;0.10;;;;;;;;;;5059121;28;20092;-92
2023/12/01 07:25:10;;;;;;;0.20;0.20;;;;;;;;;;5078967;28;20511;-91
2023/12/01 07:27:39;;;;;;;0.10;0.10;;;;;;;;;;5062986;28;20474;-92
2023/12/01 07:30:06;;;;;;;0.10;0.10;;;;;;;;;;5066243;28;20044;-93
2023/12/01 07:32:33;;;;;;;0.20;0.20;;;;;;;;;;5077602;28;20379;-92
2023/12/01 07:34:59;;;;;;;0.10;0.10;;;;;;;;;;5094918;28;20150;-89
2023/12/01 07:37:25;;;;;;;0.10;0.10;;;;;;;;;;5058583;28;20082;-89
2023/12/01 07:39:51;;;;;;;0.10;0.10;;;;;;;;;;5091093;28;20079;-88
2023/12/01 07:42:17;;;;;;;0.45;0.45;;;;;;;;;;5074758;28;20087;-88
2023/12/01 07:44:43;;;;;;;0.10;0.10;;;;;;;;;;5091099;28;20430;-88
2023/12/01 07:47:11;;;;;;;0.10;0.10;;;;;;;;;;5073564;28;20119;-88
2023/12/01 07:49:38;;;;;;;0.10;0.10;;;;;;;;;;5057697;28;20122;-88
2023/12/01 07:52:06;;;;;;;0.10;0.10;;;;;;;;;;5074094;28;20037;-87
2023/12/01 07:54:33;;;;;;;0.10;0.10;;;;;;;;;;5074622;28;20506;-88
2023/12/01 07:56:59;;;;;;;0.25;0.25;;;;;;;;;;5057521;28;20450;-88
2023/12/01 07:59:25;;;;;;;0.30;0.30;;;;;;;;;;5074073;28;20068;-88
2023/12/01 08:01:51;;;;;;;0.10;0.10;;;;;;;;;;5074238;28;20048;-87
2023/12/01 08:04:17;;;;;;;0.10;0.10;;;;;;;;;;5057371;28;20047;-89
2023/12/01 08:06:43;;;;;;;0.10;0.10;;;;;;;;;;5074877;28;20147;-90
2023/12/01 08:09:12;;;;;;;0.17;0.17;;;;;;;;;;5073911;28;20044;-86
2023/12/01 08:11:38;;;;;;;0.10;0.10;;;;;;;;;;5090463;28;20071;-88
2023/12/01 08:14:04;;;;;;;0.10;0.10;;;;;;;;;;5057015;28;20051;-88
2023/12/01 08:16:30;;;;;;;0.10;0.10;;;;;;;;;;5090679;28;20522;-87
2023/12/01 08:18:58;;;;;;;0.10;0.10;;;;;;;;;;5073741;28;20036;-88
2023/12/01 08:21:24;;;;;;;0.10;0.10;;;;;;;;;;5074241;28;20380;-88
2023/12/01 08:23:50;;;;;;;0.10;0.10;;;;;;;;;;5074060;28;20050;-87
2023/12/01 08:26:16;;;;;;;0.10;0.10;;;;;;;;;;5057192;28;20399;-88
2023/12/01 08:28:42;;;;;;;0.20;0.20;;;;;;;;;;5073816;28;20131;-88
2023/12/01 08:31:08;;;;;;;0.10;0.10;;;;;;;;;;5073864;28;20044;-88
2023/12/01 08:33:37;;;;;;;0.50;0.50;;;;;;;;;;5073602;28;20040;-89
2023/12/01 08:36:03;;;;;;;0.32;0.32;;;;;;;;;;5074190;28;20082;-89
2023/12/01 08:38:29;;;;;;;0.10;0.10;;;;;;;;;;5073866;28;20040;-87
2023/12/01 08:40:55;;;;;;;0.10;0.10;;;;;;;;;;5057005;28;20039;-89
2023/12/01 08:43:23;;;;;;;0.10;0.10;;;;;;;;;;5070314;28;20093;-89
2023/12/01 08:45:49;;;;;;;0.10;0.10;;;;;;;;;;5073651;28;20048;-89
2023/12/01 08:48:15;;;;;;;0.15;0.15;;;;;;;;;;5073481;28;20050;-89
2023/12/01 08:50:41;;;;;;;0.10;0.10;;;;;;;;;;5073698;28;20465;-89
2023/12/01 08:53:07;;;;;;;0.10;0.10;;;;;;;;;;5090320;28;20040;-88
2023/12/01 08:55:33;;;;;;;0.30;0.30;;;;;;;;;;5073746;28;20036;-89
2023/12/01 08:57:59;;;;;;;0.10;0.10;;;;;;;;;;5073437;28;20040;-89
2023/12/01 09:00:25;;;;;;;0.98;0.40;;;;;;;;;;5092935;28;20162;-89
2023/12/01 09:02:52;;;;;;;0.20;0.20;;;;;;;;;;5077042;28;20506;-90
2023/12/01 09:05:18;;;;;;;0.10;0.10;;;;;;;;;;5094466;28;20032;-89
2023/12/01 09:07:46;;;;;;;0.50;0.50;;;;;;;;;;5073647;28;20051;-90
2023/12/01 09:10:13;;;;;;;0.10;0.10;;;;;;;;;;5074358;28;20040;-90
2023/12/01 09:12:39;;;;;;;0.10;0.10;;;;;;;;;;5090225;28;20043;-90
2023/12/01 09:15:05;;;;;;;0.28;0.28;;;;;;;;;;5090616;28;20048;-90
2023/12/01 09:17:34;;;;;;;0.10;0.10;;;;;;;;;;5077015;28;20048;-96
2023/12/01 09:20:00;;;;;;;0.20;0.20;;;;;;;;;;5094618;28;20037;-91
2023/12/01 09:22:26;;;;;;;0.10;0.10;;;;;;;;;;5092886;28;20394;-90
2023/12/01 09:24:52;;;;;;;0.20;0.20;;;;;;;;;;5094329;28;20040;-91
2023/12/01 09:27:19;;;;;;;0.10;0.10;;;;;;;;;;5077540;28;20086;-91
2023/12/01 09:29:46;;;;;;;0.20;0.20;;;;;;;;;;5077264;28;20043;-89
2023/12/01 09:32:12;;;;;;;0.40;0.40;;;;;;;;;;5076893;28;20059;-89
2023/12/01 09:34:38;;;;;;;0.30;0.30;;;;;;;;;;5076536;28;20036;-90
2023/12/01 09:37:04;;;;;;;0.10;0.10;;;;;;;;;;5059792;28;20047;-89
2023/12/01 09:39:30;;;;;;;0.10;0.10;;;;;;;;;;5092698;28;20161;-88
2023/12/01 09:41:56;;;;;;;0.10;0.10;;;;;;;;;;5076089;28;20119;-87
2023/12/01 09:44:22;;;;;;;0.43;0.43;;;;;;;;;;5059295;28;20047;-90
2023/12/01 09:46:48;;;;;;;0.10;0.10;;;;;;;;;;5075207;28;20040;-89
2023/12/01 09:49:14;;;;;;;0.30;0.30;;;;;;;;;;5040853;28;20043;-89
2023/12/01 09:51:40;;;;;;;0.30;0.30;;;;;;;;;;5056355;28;20036;-90
2023/12/01 09:54:06;;;;;;;0.10;0.10;;;;;;;;;;5070151;28;20086;-89
2023/12/01 09:56:32;;;;;;;2.85;0.50;;;;;;;;;;5076303;28;20040;-89
2023/12/01 09:58:58;;;;;;;0.10;0.10;;;;;;;;;;5075957;28;20036;-89
2023/12/01 10:01:24;;;;;;;0.10;0.10;;;;;;;;;;5076586;28;20036;-89
2023/12/01 10:03:51;;;;;;;0.30;0.30;;;;;;;;;;5064664;28;20442;-89
2023/12/01 10:06:17;;;;;;;0.28;0.28;;;;;;;;;;5072544;28;20051;-89
2023/12/01 10:08:43;;;;;;;0.60;0.60;;;;;;;;;;5049213;28;20122;-89
2023/12/01 10:11:20;;;;;;;0.10;0.10;;;;;;;;;;5058507;28;20044;-89
2023/12/01 10:13:48;;;;;;;0.10;0.10;;;;;;;;;;5048621;28;20139;-90
2023/12/01 10:16:14;;;;;;;0.10;0.10;;;;;;;;;;5057492;28;20051;-93
2023/12/01 10:18:40;;;;;;;0.10;0.10;;;;;;;;;;5076849;28;20036;-95
2023/12/01 10:21:07;;;;;;;0.30;0.30;;;;;;;;;;5059923;28;20047;-92
2023/12/01 10:23:33;;;;;;;0.10;0.10;;;;;;;;;;5059118;28;20055;-89
2023/12/01 10:26:03;;;;;;;0.20;0.20;;;;;;;;;;5058538;28;20149;-90
2023/12/01 10:28:42;;;;;;;0.10;0.10;;;;;;;;;;5059213;28;20490;-88
2023/12/01 10:31:09;;;;;;;0.10;0.10;;;;;;;;;;5079468;28;20040;-92
2023/12/01 10:33:35;;;;;;;0.10;0.10;;;;;;;;;;5058825;28;20036;-90
2023/12/01 10:36:05;;;;;;;0.20;0.20;;;;;;;;;;5058527;28;20051;-88
2023/12/01 10:38:31;;;;;;;0.13;0.13;;;;;;;;;;5091770;28;20040;-89
2023/12/01 10:40:58;;;;;;;0.10;0.10;;;;;;;;;;5058422;28;20540;-93
2023/12/01 10:43:26;;;;;;;1.17;0.45;;;;;;;;;;5058650;28;20093;-91
2023/12/01 10:45:52;;;;;;;0.10;0.10;;;;;;;;;;5058910;28;20082;-89
2023/12/01 10:48:19;;;;;;;0.43;0.43;;;;;;;;;;5075600;28;20119;-90
2023/12/01 10:50:46;;;;;;;0.20;0.20;;;;;;;;;;5060383;28;20036;-90
2023/12/01 10:53:12;;;;;;;0.22;0.22;;;;;;;;;;5076168;28;20036;-90
2023/12/01 10:55:38;;;;;;;0.10;0.10;;;;;;;;;;5075706;28;20479;-90
2023/12/01 10:58:08;;;;;;;0.20;0.20;;;;;;;;;;5058297;28;20036;-89
2023/12/01 11:00:35;;;;;;;1.20;0.22;;;;;;;;;;5058553;28;20032;-90
2023/12/01 11:03:03;;;;;;;0.20;0.20;;;;;;;;;;5058358;28;20119;-89
2023/12/01 11:05:30;;;;;;;1.75;0.80;;;;;;;;;;5060829;28;20037;-89
2023/12/01 11:08:12;;;;;;;0.10;0.10;;;;;;;;;;5058571;28;20047;-90
2023/12/01 11:10:50;;;;;;;3.75;0.73;;;;;;;;;;5091677;28;20043;-90
2023/12/01 11:13:32;;;;;;;0.30;0.30;;;;;;;;;;5058482;28;20429;-90
2023/12/01 11:15:59;;;;;;;0.20;0.20;;;;;;;;;;5058576;28;20073;-90
2023/12/01 11:18:25;;;;;;;0.10;0.10;;;;;;;;;;5058792;28;20059;-90
2023/12/01 11:20:52;;;;;;;0.10;0.10;;;;;;;;;;5057768;28;20111;-90
2023/12/01 11:23:23;;;;;;;0.20;0.20;;;;;;;;;;5074579;28;20047;-90
2023/12/01 11:25:56;;;;;;;0.38;0.38;;;;;;;;;;5057959;28;20036;-90
2023/12/01 11:28:32;;;;;;;0.10;0.10;;;;;;;;;;5074851;28;20082;-90
2023/12/01 11:33:50;;;;;;;0.20;0.20;;;;;;;;;;5075350;28;20066;-90
2023/12/01 11:36:19;;;;;;;0.15;0.15;;;;;;;;;;5057809;28;20067;-89
2023/12/01 11:39:08;;;;;;;0.10;0.10;;;;;;;;;;5074463;28;20387;-89
2023/12/01 11:41:34;;;;;;;0.17;0.17;;;;;;;;;;5091039;28;20516;-89
2023/12/01 11:44:30;;;;;;;0.52;0.45;;;;;;;;;;5059457;28;20479;-93
2023/12/01 11:46:58;;;;;;;0.20;0.20;;;;;;;;;;5048030;28;20527;-89
2023/12/01 11:49:28;;;;;;;0.10;0.10;;;;;;;;;;5057465;28;20061;-89
2023/12/01 11:51:55;;;;;;;0.10;0.10;;;;;;;;;;5057804;28;20391;-91
2023/12/01 11:54:21;;;;;;;0.10;0.10;;;;;;;;;;5074306;28;20040;-89
2023/12/01 11:56:51;;;;;;;0.50;0.30;;;;;;;;;;5057265;28;20381;-89
2023/12/01 11:59:18;;;;;;;0.10;0.10;;;;;;;;;;5057680;28;20036;-89
2023/12/01 12:01:44;;;;;;;0.10;0.10;;;;;;;;;;5057188;28;20560;-88
2023/12/01 12:04:13;;;;;;;0.20;0.20;;;;;;;;;;5074012;28;20082;-88
2023/12/01 12:06:39;;;;;;;0.30;0.30;;;;;;;;;;5058021;28;20042;-88
2023/12/01 12:09:08;;;;;;;0.10;0.10;;;;;;;;;;5057506;28;20122;-90
2023/12/01 12:11:35;;;;;;;0.10;0.10;;;;;;;;;;5073918;28;20040;-89
2023/12/01 12:14:07;;;;;;;0.10;0.10;;;;;;;;;;5057517;28;20060;-90
2023/12/01 12:16:33;;;;;;;0.80;0.73;;;;;;;;;;5058301;28;20051;-90
2023/12/01 12:18:59;;;;;;;0.40;0.40;;;;;;;;;;5057806;28;20042;-91
2023/12/01 12:21:27;;;;;;;0.20;0.20;;;;;;;;;;5057703;28;20081;-91
2023/12/01 12:23:53;;;;;;;0.40;0.40;;;;;;;;;;5057708;28;20137;-91
2023/12/01 12:26:28;;;;;;;0.40;0.28;;;;;;;;;;5057368;28;20047;-90
2023/12/01 12:28:58;;;;;;;0.25;0.25;;;;;;;;;;5057243;28;20104;-90
2023/12/01 12:31:25;;;;;;;0.10;0.10;;;;;;;;;;5074052;28;20094;-90
2023/12/01 12:33:56;;;;;;;0.65;0.65;;;;;;;;;;5076361;28;20432;-91
2023/12/01 12:36:23;;;;;;;1.33;0.47;;;;;;;;;;5084896;28;20169;-91
2023/12/01 12:38:50;;;;;;;0.50;0.50;;;;;;;;;;5071524;28;20043;-91
2023/12/01 12:41:25;;;;;;;0.10;0.10;;;;;;;;;;5064758;28;20062;-91
2023/12/01 12:43:52;;;;;;;0.10;0.10;;;;;;;;;;5077572;28;20040;-90
2023/12/01 12:46:18;;;;;;;0.10;0.10;;;;;;;;;;5060768;28;20044;-89
2023/12/01 12:48:45;;;;;;;0.20;0.20;;;;;;;;;;5077642;28;20125;-90
2023/12/01 12:51:11;;;;;;;0.30;0.30;;;;;;;;;;5060335;28;20268;-91
2023/12/01 12:53:37;;;;;;;0.38;0.38;;;;;;;;;;5060685;28;20040;-88
2023/12/01 12:56:13;;;;;;;0.17;0.17;;;;;;;;;;5061198;28;20154;-92
2023/12/01 12:58:40;;;;;;;0.25;0.20;;;;;;;;;;5061405;28;20368;-92
2023/12/01 13:01:06;;;;;;;0.10;0.10;;;;;;;;;;5077414;28;20143;-91
2023/12/01 13:03:32;;;;;;;0.50;0.50;;;;;;;;;;5061051;28;20044;-90
2023/12/01 13:05:58;;;;;;;0.10;0.10;;;;;;;;;;5061368;28;20044;-90
2023/12/01 13:08:24;;;;;;;0.55;0.55;;;;;;;;;;5077044;28;20093;-89
2023/12/01 13:10:50;;;;;;;0.10;0.10;;;;;;;;;;5060252;28;20048;-89
2023/12/01 13:13:16;;;;;;;0.10;0.10;;;;;;;;;;5076792;28;20491;-89
2023/12/01 13:15:43;;;;;;;0.30;0.30;;;;;;;;;;5076624;28;20074;-90
2023/12/01 13:18:09;;;;;;;2.03;0.25;;;;;;;;;;5093635;28;20040;-89
2023/12/01 13:20:35;;;;;;;0.32;0.32;;;;;;;;;;5060103;28;20077;-89
2023/12/01 13:23:01;;;;;;;0.20;0.20;;;;;;;;;;5060051;28;20075;-89
2023/12/01 13:25:27;;;;;;;0.20;0.20;;;;;;;;;;5076514;28;20575;-89
2023/12/01 13:27:53;;;;;;;0.20;0.20;;;;;;;;;;5072148;28;20052;-89
2023/12/01 13:30:19;;;;;;;0.10;0.10;;;;;;;;;;5073059;28;20119;-90
2023/12/01 13:32:45;;;;;;;0.10;0.10;;;;;;;;;;5073078;28;20148;-89
2023/12/01 13:35:11;;;;;;;0.20;0.20;;;;;;;;;;5072728;28;20173;-89
2023/12/01 13:37:38;;;;;;;0.10;0.10;;;;;;;;;;5057995;28;20036;-89
2023/12/01 13:40:04;;;;;;;0.10;0.10;;;;;;;;;;5056272;28;20060;-89
2023/12/01 13:42:31;;;;;;;0.50;0.50;;;;;;;;;;5056407;28;20040;-89
2023/12/01 13:44:57;;;;;;;0.10;0.10;;;;;;;;;;5072018;28;20044;-88
2023/12/01 13:47:24;;;;;;;0.20;0.20;;;;;;;;;;5072768;28;20048;-88
2023/12/01 13:49:50;;;;;;;0.20;0.20;;;;;;;;;;5072696;28;20090;-89
2023/12/01 13:52:17;;;;;;;0.10;0.10;;;;;;;;;;5072508;28;20040;-88
2023/12/01 13:54:43;;;;;;;0.10;0.10;;;;;;;;;;5056389;28;20476;-89
2023/12/01 13:57:09;;;;;;;0.10;0.10;;;;;;;;;;5072496;28;20098;-88
2023/12/01 13:59:35;;;;;;;0.10;0.10;;;;;;;;;;5074779;28;20037;-93
2023/12/01 14:02:01;;;;;;;0.15;0.15;;;;;;;;;;5058052;28;20127;-89
2023/12/01 14:04:27;;;;;;;0.20;0.20;;;;;;;;;;5055808;28;20051;-88
2023/12/01 14:06:53;;;;;;;0.10;0.10;;;;;;;;;;5055653;28;20037;-88
2023/12/01 14:09:20;;;;;;;0.17;0.17;;;;;;;;;;5071198;28;20036;-88
2023/12/01 14:11:46;;;;;;;0.10;0.10;;;;;;;;;;5057531;28;20567;-88
2023/12/01 14:14:12;;;;;;;0.10;0.10;;;;;;;;;;5054039;28;20044;-88
2023/12/01 14:16:38;;;;;;;0.20;0.20;;;;;;;;;;5055319;28;20040;-88
2023/12/01 14:19:04;;;;;;;0.10;0.10;;;;;;;;;;5045656;28;20043;-88
2023/12/01 14:21:30;;;;;;;0.30;0.30;;;;;;;;;;5075121;28;20047;-87
2023/12/01 14:23:57;;;;;;;0.10;0.10;;;;;;;;;;5053229;28;20127;-88
2023/12/01 14:26:23;;;;;;;0.10;0.10;;;;;;;;;;5071763;28;20053;-89
2023/12/01 14:28:49;;;;;;;0.20;0.20;;;;;;;;;;5038753;28;20040;-88
2023/12/01 14:31:15;;;;;;;0.10;0.10;;;;;;;;;;5071567;28;20044;-88
2023/12/01 14:33:41;;;;;;;0.15;0.15;;;;;;;;;;5056864;28;20555;-88
2023/12/01 14:36:07;;;;;;;0.10;0.10;;;;;;;;;;5074779;28;20135;-88
2023/12/01 14:38:33;;;;;;;0.30;0.30;;;;;;;;;;5074735;28;20119;-88
2023/12/01 14:40:59;;;;;;;0.10;0.10;;;;;;;;;;5058190;28;20032;-89
2023/12/01 14:43:25;;;;;;;0.10;0.10;;;;;;;;;;5074983;28;20097;-87
2023/12/01 14:45:52;;;;;;;0.10;0.10;;;;;;;;;;5058032;28;20507;-88